createdAt,value
2022-08-17T00:02:22.000Z,33.8
2022-08-17T00:04:48.000Z,33.8
2022-08-17T00:04:56.000Z,33.88
2022-08-17T00:07:13.000Z,34.4
2022-08-17T00:09:39.000Z,33.53
2022-08-17T00:12:05.000Z,35.03
2022-08-17T00:14:30.000Z,35.03
2022-08-17T00:14:36.000Z,35.98
2022-08-17T00:16:56.000Z,36.85
2022-08-17T00:19:22.000Z,35.93
2022-08-17T00:21:48.000Z,34.8
2022-08-17T00:24:17.000Z,34.8
2022-08-17T00:24:23.000Z,34.92
2022-08-17T00:26:42.000Z,36.77
2022-08-17T00:29:09.000Z,38
2022-08-17T00:31:36.000Z,38
2022-08-17T00:31:41.000Z,44.4
2022-08-17T00:34:01.000Z,45.15
2022-08-17T00:36:26.000Z,42.13
2022-08-17T00:38:53.000Z,38.23
2022-08-17T00:41:19.000Z,37.08
2022-08-17T00:43:44.000Z,38.63
2022-08-17T00:46:10.000Z,38.7
2022-08-17T00:48:38.000Z,37.73
2022-08-17T00:51:05.000Z,38.3
2022-08-17T00:53:30.000Z,41.8
2022-08-17T00:55:56.000Z,39.58
2022-08-17T00:58:22.000Z,41.45
2022-08-17T01:00:49.000Z,41.45
2022-08-17T01:00:56.000Z,39.38
2022-08-17T01:03:15.000Z,38.75
2022-08-17T01:05:43.000Z,36.88
2022-08-17T01:08:09.000Z,33
2022-08-17T01:10:34.000Z,30.4
2022-08-17T01:13:00.000Z,30.4
2022-08-17T01:13:06.000Z,27.5
2022-08-17T01:15:26.000Z,22.87
2022-08-17T01:17:52.000Z,19.2
2022-08-17T01:20:20.000Z,19.43
2022-08-17T01:22:43.000Z,18.45
2022-08-17T01:25:10.000Z,21.15
2022-08-17T01:27:35.000Z,21.62
2022-08-17T01:30:00.000Z,21.77
2022-08-17T01:32:26.000Z,21.77
2022-08-17T01:32:32.000Z,21.8
2022-08-17T01:34:53.000Z,21.6
2022-08-17T01:37:18.000Z,21.5
2022-08-17T01:39:45.000Z,21.97
2022-08-17T01:42:10.000Z,21.85
2022-08-17T01:44:37.000Z,24.07
2022-08-17T01:47:02.000Z,21.3
2022-08-17T01:49:28.000Z,19.9
2022-08-17T01:51:54.000Z,19.65
2022-08-17T01:54:23.000Z,19.7
2022-08-17T01:56:46.000Z,18
2022-08-17T01:59:16.000Z,16.27
2022-08-17T02:01:47.000Z,15.4
2022-08-17T02:04:03.000Z,15.6
2022-08-17T02:06:32.000Z,14.7
2022-08-17T02:08:55.000Z,14.7
2022-08-17T02:11:23.000Z,14.7
2022-08-17T02:11:32.000Z,13.58
2022-08-17T02:11:39.000Z,13.4
2022-08-17T02:13:47.000Z,13.48
2022-08-17T02:16:13.000Z,13.48
2022-08-17T02:16:19.000Z,13.88
2022-08-17T02:18:39.000Z,12.8
2022-08-17T02:21:05.000Z,12.63
2022-08-17T02:23:32.000Z,12.45
2022-08-17T02:25:58.000Z,15.32
2022-08-17T02:28:25.000Z,15.08
2022-08-17T02:30:51.000Z,14.4
2022-08-17T02:33:17.000Z,14.4
2022-08-17T02:35:49.000Z,14.4
2022-08-17T02:35:55.000Z,11.57
2022-08-17T02:36:00.000Z,11.4
2022-08-17T02:38:09.000Z,11.55
2022-08-17T02:40:34.000Z,11.4
2022-08-17T02:43:01.000Z,10.53
2022-08-17T02:45:27.000Z,10.98
2022-08-17T02:47:56.000Z,10.38
2022-08-17T02:50:20.000Z,10.28
2022-08-17T02:52:46.000Z,11.63
2022-08-17T02:55:11.000Z,11.63
2022-08-17T02:55:16.000Z,12.07
2022-08-17T02:57:37.000Z,11.33
2022-08-17T03:00:10.000Z,13.37
2022-08-17T03:02:28.000Z,12.97
2022-08-17T03:04:54.000Z,12.13
2022-08-17T03:07:20.000Z,11.5
2022-08-17T03:09:45.000Z,11.03
2022-08-17T03:12:11.000Z,9.6
2022-08-17T03:14:37.000Z,9.38
2022-08-17T03:17:04.000Z,9.78
2022-08-17T03:19:31.000Z,9.55
2022-08-17T03:21:56.000Z,9.3
2022-08-17T03:24:21.000Z,9.3
2022-08-17T03:26:47.000Z,9.3
2022-08-17T03:26:53.000Z,9.77
2022-08-17T03:26:58.000Z,10.9
2022-08-17T03:29:14.000Z,11.13
2022-08-17T03:31:42.000Z,11
2022-08-17T03:34:07.000Z,10.38
2022-08-17T03:36:32.000Z,8.93
2022-08-17T03:38:58.000Z,8.65
2022-08-17T03:41:24.000Z,8.25
2022-08-17T03:43:49.000Z,9
2022-08-17T03:46:15.000Z,8.2
2022-08-17T03:48:40.000Z,8.2
2022-08-17T03:48:49.000Z,7.62
2022-08-17T03:51:07.000Z,7.87
2022-08-17T03:53:33.000Z,7.87
2022-08-17T03:53:39.000Z,7.2
2022-08-17T03:55:59.000Z,7.87
2022-08-17T03:58:24.000Z,6.85
2022-08-17T04:00:50.000Z,6.7
2022-08-17T04:03:16.000Z,6.8
2022-08-17T04:05:41.000Z,6.83
2022-08-17T04:08:09.000Z,7.37
2022-08-17T04:10:39.000Z,7.42
2022-08-17T04:13:07.000Z,7.42
2022-08-17T04:13:13.000Z,7.05
2022-08-17T04:15:33.000Z,7.05
2022-08-17T04:15:38.000Z,7.43
2022-08-17T04:17:59.000Z,7.4
2022-08-17T04:20:25.000Z,8
2022-08-17T04:22:50.000Z,8.35
2022-08-17T04:25:16.000Z,8.93
2022-08-17T04:27:43.000Z,9.03
2022-08-17T04:30:10.000Z,9.23
2022-08-17T04:32:34.000Z,9.7
2022-08-17T04:35:00.000Z,9.7
2022-08-17T04:35:06.000Z,9.7
2022-08-17T04:37:25.000Z,11.2
2022-08-17T04:39:51.000Z,9.85
2022-08-17T04:42:18.000Z,11
2022-08-17T04:44:44.000Z,10.38
2022-08-17T04:47:10.000Z,10.38
2022-08-17T04:47:16.000Z,11.22
2022-08-17T04:49:36.000Z,11.12
2022-08-17T04:52:03.000Z,10.75
2022-08-17T04:54:28.000Z,10.75
2022-08-17T04:54:33.000Z,10.8
2022-08-17T04:56:54.000Z,10.05
2022-08-17T04:59:21.000Z,9.68
2022-08-17T05:01:46.000Z,9.45
2022-08-17T05:04:12.000Z,10
2022-08-17T05:06:41.000Z,10
2022-08-17T05:06:46.000Z,9.83
2022-08-17T05:09:07.000Z,10.28
2022-08-17T05:11:33.000Z,10.75
2022-08-17T05:13:58.000Z,11.23
2022-08-17T05:16:29.000Z,11.48
2022-08-17T05:18:50.000Z,11.22
2022-08-17T05:21:15.000Z,10.8
2022-08-17T05:23:41.000Z,10.83
2022-08-17T05:26:07.000Z,10.83
2022-08-17T05:28:33.000Z,10.83
2022-08-17T05:28:39.000Z,10.43
2022-08-17T05:28:47.000Z,11.15
2022-08-17T05:30:58.000Z,11.12
2022-08-17T05:33:44.000Z,10.6
2022-08-17T05:35:50.000Z,10.6
2022-08-17T05:35:56.000Z,11.15
2022-08-17T05:38:16.000Z,10.88
2022-08-17T05:40:42.000Z,11.03
2022-08-17T05:43:08.000Z,11.43
2022-08-17T05:45:34.000Z,11.55
2022-08-17T05:48:00.000Z,11.55
2022-08-17T05:48:05.000Z,12.65
2022-08-17T05:50:27.000Z,12.18
2022-08-17T05:52:51.000Z,11.9
2022-08-17T05:55:17.000Z,11.33
2022-08-17T05:57:44.000Z,11.43
2022-08-17T06:00:15.000Z,11.43
2022-08-17T06:02:35.000Z,11.43
2022-08-17T06:02:47.000Z,11.35
2022-08-17T06:02:54.000Z,13.4
2022-08-17T06:05:01.000Z,13.07
2022-08-17T06:07:27.000Z,13.9
2022-08-17T06:09:54.000Z,14.4
2022-08-17T06:12:19.000Z,13.9
2022-08-17T06:14:45.000Z,13.3
2022-08-17T06:17:12.000Z,12.03
2022-08-17T06:19:37.000Z,12.63
2022-08-17T06:22:02.000Z,13.7
2022-08-17T06:24:28.000Z,14.37
2022-08-17T06:26:54.000Z,13.8
2022-08-17T06:29:19.000Z,14
2022-08-17T06:31:46.000Z,14.37
2022-08-17T06:34:12.000Z,21.2
2022-08-17T06:36:37.000Z,16.05
2022-08-17T06:39:04.000Z,15.27
2022-08-17T06:41:30.000Z,14.33
2022-08-17T06:43:55.000Z,13.55
2022-08-17T06:46:22.000Z,14.03
2022-08-17T06:48:47.000Z,13.72
2022-08-17T06:51:13.000Z,13.08
2022-08-17T06:53:39.000Z,13.73
2022-08-17T06:56:05.000Z,12.6
2022-08-17T06:58:31.000Z,13.32
2022-08-17T07:00:58.000Z,12.07
2022-08-17T07:03:24.000Z,12.47
2022-08-17T07:05:50.000Z,12.68
2022-08-17T07:08:18.000Z,12.55
2022-08-17T07:10:42.000Z,12.55
2022-08-17T07:10:49.000Z,12.55
2022-08-17T07:13:08.000Z,13.3
2022-08-17T07:15:34.000Z,12.63
2022-08-17T07:18:00.000Z,13.1
2022-08-17T07:20:25.000Z,12.9
2022-08-17T07:22:51.000Z,12.82
2022-08-17T07:25:17.000Z,12.82
2022-08-17T07:25:25.000Z,12.53
2022-08-17T07:27:43.000Z,12.23
2022-08-17T07:30:11.000Z,12.2
2022-08-17T07:32:34.000Z,11.2
2022-08-17T07:35:00.000Z,11.6
2022-08-17T07:37:27.000Z,11.4
2022-08-17T07:39:52.000Z,11.22
2022-08-17T07:42:18.000Z,11.22
2022-08-17T07:42:23.000Z,11.68
2022-08-17T07:44:44.000Z,11.9
2022-08-17T07:47:10.000Z,11.27
2022-08-17T07:49:35.000Z,10.4
2022-08-17T07:52:01.000Z,11
2022-08-17T07:54:27.000Z,11
2022-08-17T07:54:34.000Z,11.43
2022-08-17T07:56:52.000Z,11.25
2022-08-17T07:59:20.000Z,11.25
2022-08-17T08:01:47.000Z,11.25
2022-08-17T08:04:13.000Z,11.25
2022-08-17T08:04:23.000Z,11.28
2022-08-17T08:04:33.000Z,11.7
2022-08-17T08:06:38.000Z,11.1
2022-08-17T08:09:04.000Z,11.77
2022-08-17T08:11:30.000Z,11.05
2022-08-17T08:13:56.000Z,11.05
2022-08-17T08:16:23.000Z,11.05
2022-08-17T08:18:50.000Z,10.58
2022-08-17T08:21:16.000Z,10.58
2022-08-17T08:21:21.000Z,10.48
2022-08-17T08:23:42.000Z,10.82
2022-08-17T08:26:09.000Z,11.25
2022-08-17T08:28:34.000Z,11.25
2022-08-17T08:28:40.000Z,11.57
2022-08-17T08:31:03.000Z,11
2022-08-17T08:33:29.000Z,11.03
2022-08-17T08:35:55.000Z,10.98
2022-08-17T08:38:21.000Z,11.1
2022-08-17T08:40:47.000Z,10.3
2022-08-17T08:43:13.000Z,10.35
2022-08-17T08:45:41.000Z,10.5
2022-08-17T08:48:08.000Z,10.5
2022-08-17T08:50:33.000Z,10.5
2022-08-17T08:50:43.000Z,9.95
2022-08-17T08:53:00.000Z,11.03
2022-08-17T08:55:26.000Z,10.9
2022-08-17T08:57:52.000Z,11.1
2022-08-17T09:00:21.000Z,10.95
2022-08-17T09:02:44.000Z,9.97
2022-08-17T09:05:12.000Z,10.67
2022-08-17T09:07:37.000Z,10.9
2022-08-17T09:10:06.000Z,10.3
2022-08-17T09:12:30.000Z,11.12
2022-08-17T09:14:57.000Z,10.25
2022-08-17T09:17:23.000Z,10.85
2022-08-17T09:19:49.000Z,10.55
2022-08-17T09:22:16.000Z,10.98
2022-08-17T09:24:42.000Z,11
2022-08-17T09:27:09.000Z,11.63
2022-08-17T09:29:34.000Z,11.6
2022-08-17T09:32:00.000Z,11.15
2022-08-17T09:34:26.000Z,10.68
2022-08-17T09:36:52.000Z,10.68
2022-08-17T09:36:59.000Z,11.33
2022-08-17T09:39:22.000Z,11.57
2022-08-17T09:41:48.000Z,11.78
2022-08-17T09:44:14.000Z,12.3
2022-08-17T09:46:39.000Z,12.3
2022-08-17T09:46:48.000Z,12.53
2022-08-17T09:49:06.000Z,11.65
2022-08-17T09:51:31.000Z,10.8
2022-08-17T09:53:58.000Z,10.72
2022-08-17T09:56:24.000Z,10.72
2022-08-17T09:56:30.000Z,10.1
2022-08-17T09:58:51.000Z,10.32
2022-08-17T10:01:16.000Z,10.13
2022-08-17T10:03:43.000Z,10.5
2022-08-17T10:06:08.000Z,10.8
2022-08-17T10:08:34.000Z,10.6
2022-08-17T10:10:59.000Z,10.48
2022-08-17T10:13:26.000Z,11.18
2022-08-17T10:15:53.000Z,11.17
2022-08-17T10:18:19.000Z,10.8
2022-08-17T10:20:45.000Z,10.8
2022-08-17T10:20:50.000Z,10.45
2022-08-17T10:23:11.000Z,10.97
2022-08-17T10:25:37.000Z,10.57
2022-08-17T10:28:04.000Z,10.57
2022-08-17T10:30:29.000Z,10.57
2022-08-17T10:30:35.000Z,10.5
2022-08-17T10:30:42.000Z,10.95
2022-08-17T10:32:54.000Z,11.1
2022-08-17T10:35:21.000Z,11.85
2022-08-17T10:37:48.000Z,11.15
2022-08-17T10:40:15.000Z,10.85
2022-08-17T10:42:41.000Z,10.95
2022-08-17T10:45:07.000Z,11.03
2022-08-17T10:47:33.000Z,11.2
2022-08-17T10:49:59.000Z,11.2
2022-08-17T10:50:07.000Z,11.2
2022-08-17T10:52:24.000Z,10.9
2022-08-17T10:54:50.000Z,11.95
2022-08-17T10:57:15.000Z,12.6
2022-08-17T10:59:42.000Z,11.95
2022-08-17T11:08:00.000Z,11.1
2022-08-17T11:10:24.000Z,11.73
2022-08-17T11:12:50.000Z,12.58
2022-08-17T11:15:16.000Z,11.95
2022-08-17T11:17:42.000Z,13.4
2022-08-17T11:20:08.000Z,13.68
2022-08-17T11:22:34.000Z,14.28
2022-08-17T11:25:00.000Z,13.13
2022-08-17T11:27:26.000Z,13.55
2022-08-17T11:29:52.000Z,14
2022-08-17T11:32:19.000Z,14
2022-08-17T11:32:26.000Z,14.67
2022-08-17T11:34:43.000Z,15.23
2022-08-17T11:37:10.000Z,14.47
2022-08-17T11:39:36.000Z,14.75
2022-08-17T11:42:02.000Z,15.93
2022-08-17T11:46:54.000Z,17.42
2022-08-17T11:49:20.000Z,18.5
2022-08-17T11:51:45.000Z,18.53
2022-08-17T11:54:13.000Z,18.05
2022-08-17T11:59:03.000Z,18.05
2022-08-17T11:59:09.000Z,18.77
2022-08-17T11:59:15.000Z,19.07
2022-08-17T11:59:28.000Z,18.05
2022-08-17T12:01:28.000Z,18.47
2022-08-17T12:03:57.000Z,18.05
2022-08-17T12:06:25.000Z,16.65
2022-08-17T12:08:53.000Z,16.65
2022-08-17T12:09:02.000Z,17.15
2022-08-17T12:11:19.000Z,17.57
2022-08-17T12:13:47.000Z,17.57
2022-08-17T12:13:53.000Z,16.85
2022-08-17T12:16:11.000Z,21.25
2022-08-17T12:18:38.000Z,21.97
2022-08-17T12:21:06.000Z,19.6
2022-08-17T12:23:31.000Z,18.02
2022-08-17T12:25:58.000Z,17.3
2022-08-17T12:28:23.000Z,16.57
2022-08-17T12:30:48.000Z,16.3
2022-08-17T12:33:15.000Z,16.75
2022-08-17T12:38:06.000Z,15.77
2022-08-17T12:40:32.000Z,15.77
2022-08-17T12:40:40.000Z,16.17
2022-08-17T12:42:58.000Z,15.98
2022-08-17T12:45:24.000Z,15
2022-08-17T12:47:51.000Z,14.33
2022-08-17T12:50:16.000Z,14.2
2022-08-17T12:52:43.000Z,14.2
2022-08-17T12:52:51.000Z,14
2022-08-17T12:55:09.000Z,14
2022-08-17T12:55:15.000Z,13.38
2022-08-17T12:57:35.000Z,13.38
2022-08-17T12:57:42.000Z,13.55
2022-08-17T13:00:01.000Z,13.4
2022-08-17T13:02:27.000Z,12.35
2022-08-17T13:04:54.000Z,11.75
2022-08-17T13:07:21.000Z,11.3
2022-08-17T13:09:48.000Z,11.53
2022-08-17T13:12:14.000Z,11.53
2022-08-17T13:14:40.000Z,10.87
2022-08-17T13:17:07.000Z,10.75
2022-08-17T13:19:33.000Z,10.75
2022-08-17T13:21:59.000Z,10.75
2022-08-17T13:22:05.000Z,10.8
2022-08-17T13:22:11.000Z,10.25
2022-08-17T13:24:25.000Z,10.03
2022-08-17T13:26:51.000Z,10.03
2022-08-17T13:26:58.000Z,9.23
2022-08-17T13:29:17.000Z,9.23
2022-08-17T13:29:23.000Z,9.2
2022-08-17T13:31:42.000Z,9.23
2022-08-17T13:34:09.000Z,9.23
2022-08-17T13:34:18.000Z,8.53
2022-08-17T13:36:34.000Z,8.88
2022-08-17T13:39:00.000Z,8.1
2022-08-17T13:41:26.000Z,7.8
2022-08-17T13:43:53.000Z,7.35
2022-08-17T13:46:20.000Z,7.5
2022-08-17T13:48:44.000Z,7.6
2022-08-17T13:51:10.000Z,7.37
2022-08-17T13:53:36.000Z,7.3
2022-08-17T13:56:01.000Z,6.9
2022-08-17T13:58:29.000Z,6.9
2022-08-17T13:58:37.000Z,6.8
2022-08-17T14:00:53.000Z,6.6
2022-08-17T14:03:19.000Z,6.43
2022-08-17T14:05:45.000Z,6.6
2022-08-17T14:08:11.000Z,6.95
2022-08-17T14:10:37.000Z,6.45
2022-08-17T14:13:02.000Z,6.5
2022-08-17T14:15:29.000Z,6.33
2022-08-17T14:17:54.000Z,6.33
2022-08-17T14:18:00.000Z,6.53
2022-08-17T14:20:19.000Z,6.47
2022-08-17T14:22:45.000Z,6.3
2022-08-17T14:25:11.000Z,6.78
2022-08-17T14:27:38.000Z,6.7
2022-08-17T14:30:05.000Z,6.7
2022-08-17T14:30:12.000Z,7.25
2022-08-17T14:32:30.000Z,7.17
2022-08-17T14:34:55.000Z,7.12
2022-08-17T14:37:29.000Z,6.72
2022-08-17T14:39:47.000Z,6.9
2022-08-17T14:42:13.000Z,7.03
2022-08-17T14:44:39.000Z,6.8
2022-08-17T14:47:05.000Z,6.75
2022-08-17T14:49:30.000Z,6.83
2022-08-17T14:51:57.000Z,6.7
2022-08-17T14:54:24.000Z,6.85
2022-08-17T14:56:50.000Z,6.85
2022-08-17T14:59:16.000Z,6.85
2022-08-17T14:59:22.000Z,6.7
2022-08-17T14:59:28.000Z,6.37
2022-08-17T15:01:41.000Z,6.15
2022-08-17T15:04:08.000Z,6.67
2022-08-17T15:06:36.000Z,6.53
2022-08-17T15:09:00.000Z,6.8
2022-08-17T15:11:26.000Z,7.3
2022-08-17T15:13:52.000Z,7.23
2022-08-17T15:16:18.000Z,7.23
2022-08-17T15:16:25.000Z,6.7
2022-08-17T15:18:43.000Z,6.47
2022-08-17T15:21:10.000Z,6.55
2022-08-17T15:23:35.000Z,6.6
2022-08-17T15:26:03.000Z,6.83
2022-08-17T15:28:30.000Z,6.72
2022-08-17T15:30:56.000Z,6.85
2022-08-17T15:33:22.000Z,6.07
2022-08-17T15:35:53.000Z,6.83
2022-08-17T15:38:14.000Z,6
2022-08-17T15:40:41.000Z,6.05
2022-08-17T15:43:05.000Z,5.9
2022-08-17T15:45:32.000Z,6.13
2022-08-17T15:47:58.000Z,5.73
2022-08-17T15:50:24.000Z,6.2
2022-08-17T15:52:51.000Z,6.1
2022-08-17T15:55:15.000Z,6.1
2022-08-17T15:57:42.000Z,6.1
2022-08-17T15:57:49.000Z,5.8
2022-08-17T15:57:56.000Z,6.37
2022-08-17T16:00:16.000Z,5.73
2022-08-17T16:02:35.000Z,5.73
2022-08-17T16:05:02.000Z,5.73
2022-08-17T16:05:13.000Z,5.65
2022-08-17T16:05:23.000Z,5.83
2022-08-17T16:07:27.000Z,5.63
2022-08-17T16:09:55.000Z,5.67
2022-08-17T16:12:20.000Z,5.7
2022-08-17T16:14:50.000Z,5.1
2022-08-17T16:17:15.000Z,5.1
2022-08-17T16:19:39.000Z,5.1
2022-08-17T16:19:48.000Z,5
2022-08-17T16:22:04.000Z,5.2
2022-08-17T16:24:31.000Z,5.3
2022-08-17T16:26:57.000Z,5.62
2022-08-17T16:29:24.000Z,5.62
2022-08-17T16:29:31.000Z,5.65
2022-08-17T16:31:50.000Z,5.4
2022-08-17T16:34:19.000Z,5.47
2022-08-17T16:36:44.000Z,5.35
2022-08-17T16:39:09.000Z,5.35
2022-08-17T16:39:16.000Z,5
2022-08-17T16:41:35.000Z,5.05
2022-08-17T16:44:10.000Z,5.4
2022-08-17T16:46:30.000Z,5.4
2022-08-17T16:46:36.000Z,5.7
2022-08-17T16:48:59.000Z,5.7
2022-08-17T16:49:06.000Z,5.6
2022-08-17T16:51:24.000Z,5.6
2022-08-17T16:51:32.000Z,5.2
2022-08-17T16:53:52.000Z,5.6
2022-08-17T16:56:18.000Z,5.6
2022-08-17T16:56:24.000Z,5.75
2022-08-17T17:01:10.000Z,5.22
2022-08-17T17:03:36.000Z,5.28
2022-08-17T17:06:02.000Z,5.35
2022-08-17T17:08:28.000Z,5.28
2022-08-17T17:10:53.000Z,4.97
2022-08-17T17:13:20.000Z,4.97
2022-08-17T17:13:29.000Z,5.15
2022-08-17T17:15:46.000Z,5.03
2022-08-17T17:18:12.000Z,4.9
2022-08-17T17:20:41.000Z,4.7
2022-08-17T17:23:04.000Z,4.95
2022-08-17T17:25:30.000Z,4.97
2022-08-17T17:27:56.000Z,4.37
2022-08-17T17:30:23.000Z,4.7
2022-08-17T17:32:49.000Z,4.3
2022-08-17T17:35:14.000Z,4.23
2022-08-17T17:37:40.000Z,4.4
2022-08-17T17:40:09.000Z,4.45
2022-08-17T17:42:33.000Z,4.55
2022-08-17T17:44:59.000Z,4.1
2022-08-17T17:47:25.000Z,4
2022-08-17T17:49:53.000Z,4.25
2022-08-17T17:52:19.000Z,3.7
2022-08-17T17:54:45.000Z,4
2022-08-17T17:57:11.000Z,3.58
2022-08-17T17:59:39.000Z,3.95
2022-08-17T18:02:05.000Z,3.95
2022-08-17T18:02:13.000Z,4
2022-08-17T18:04:30.000Z,4.05
2022-08-17T18:06:56.000Z,3.65
2022-08-17T18:09:21.000Z,3.73
2022-08-17T18:11:47.000Z,3.8
2022-08-17T18:14:13.000Z,3.8
2022-08-17T18:14:19.000Z,3.45
2022-08-17T18:16:38.000Z,3.6
2022-08-17T18:19:06.000Z,3.37
2022-08-17T18:21:30.000Z,3.4
2022-08-17T18:23:59.000Z,3.2
2022-08-17T18:26:25.000Z,2.95
2022-08-17T18:28:54.000Z,2.98
2022-08-17T18:31:20.000Z,3.5
2022-08-17T18:33:48.000Z,3.15
2022-08-17T18:36:13.000Z,2.98
2022-08-17T18:38:39.000Z,2.97
2022-08-17T18:41:05.000Z,2.7
2022-08-17T18:43:32.000Z,2.62
2022-08-17T18:45:57.000Z,2.62
2022-08-17T18:46:03.000Z,2.73
2022-08-17T18:48:23.000Z,2.7
2022-08-17T18:50:49.000Z,2.75
2022-08-17T18:53:16.000Z,2.9
2022-08-17T18:55:42.000Z,2.9
2022-08-17T18:55:52.000Z,2.7
2022-08-17T18:58:08.000Z,2.6
2022-08-17T19:00:34.000Z,2.7
2022-08-17T19:03:00.000Z,2.5
2022-08-17T19:05:26.000Z,2.5
2022-08-17T19:05:33.000Z,2.65
2022-08-17T19:07:52.000Z,2.65
2022-08-17T19:10:18.000Z,2.6
2022-08-17T19:12:44.000Z,2.5
2022-08-17T19:15:11.000Z,2.3
2022-08-17T19:17:36.000Z,2.6
2022-08-17T19:20:03.000Z,2.53
2022-08-17T19:22:27.000Z,2.33
2022-08-17T19:24:53.000Z,2.87
2022-08-17T19:27:18.000Z,2.87
2022-08-17T19:27:26.000Z,2.5
2022-08-17T19:29:49.000Z,2.5
2022-08-17T19:29:55.000Z,2.72
2022-08-17T19:32:13.000Z,2.72
2022-08-17T19:32:18.000Z,2.52
2022-08-17T19:34:42.000Z,2.67
2022-08-17T19:37:08.000Z,2.72
2022-08-17T19:39:33.000Z,2.7
2022-08-17T19:41:59.000Z,2.7
2022-08-17T19:42:05.000Z,2.8
2022-08-17T19:44:25.000Z,3.2
2022-08-17T19:46:50.000Z,3.1
2022-08-17T19:49:17.000Z,3.1
2022-08-17T19:51:42.000Z,3.1
2022-08-17T19:51:50.000Z,3
2022-08-17T19:51:58.000Z,2.7
2022-08-17T19:54:10.000Z,2.7
2022-08-17T19:54:19.000Z,3.17
2022-08-17T19:56:37.000Z,2.62
2022-08-17T19:59:02.000Z,2.6
2022-08-17T20:01:28.000Z,2.87
2022-08-17T20:03:54.000Z,2.87
2022-08-17T20:04:00.000Z,2.8
2022-08-17T20:06:20.000Z,2.7
2022-08-17T20:08:47.000Z,2.97
2022-08-17T20:11:13.000Z,2.8
2022-08-17T20:13:38.000Z,2.93
2022-08-17T20:16:06.000Z,2.77
2022-08-17T20:18:37.000Z,2.87
2022-08-17T20:21:04.000Z,2.87
2022-08-17T20:23:30.000Z,2.87
2022-08-17T20:23:36.000Z,3.12
2022-08-17T20:23:44.000Z,2.85
2022-08-17T20:25:55.000Z,3
2022-08-17T20:28:23.000Z,2.7
2022-08-17T20:30:49.000Z,2.8
2022-08-17T20:33:14.000Z,2.67
2022-08-17T20:35:40.000Z,2.6
2022-08-17T20:38:06.000Z,2.7
2022-08-17T20:40:31.000Z,2.6
2022-08-17T20:42:57.000Z,2.95
2022-08-17T20:45:22.000Z,2.83
2022-08-17T20:47:48.000Z,2.73
2022-08-17T20:50:15.000Z,2.73
2022-08-17T20:50:22.000Z,2.8
2022-08-17T20:52:42.000Z,2.8
2022-08-17T20:52:47.000Z,3.05
2022-08-17T20:55:19.000Z,2.98
2022-08-17T20:57:37.000Z,2.98
2022-08-17T20:57:47.000Z,2.75
2022-08-17T21:00:07.000Z,2.9
2022-08-17T21:02:30.000Z,2.9
2022-08-17T21:04:56.000Z,2.93
2022-08-17T21:09:47.000Z,2.8
2022-08-17T21:12:13.000Z,2.72
2022-08-17T21:14:42.000Z,2.9
2022-08-17T21:17:08.000Z,2.95
2022-08-17T21:19:34.000Z,2.43
2022-08-17T21:22:00.000Z,2.43
2022-08-17T21:24:26.000Z,2.43
2022-08-17T21:24:36.000Z,2.83
2022-08-17T21:26:51.000Z,2.83
2022-08-17T21:27:04.000Z,2.7
2022-08-17T21:29:19.000Z,2.7
2022-08-17T21:31:46.000Z,2.98
2022-08-17T21:34:10.000Z,2.98
2022-08-17T21:34:19.000Z,2.72
2022-08-17T21:34:28.000Z,3.3
2022-08-17T21:36:37.000Z,2.77
2022-08-17T21:39:06.000Z,2.77
2022-08-17T21:41:28.000Z,2.77
2022-08-17T21:41:36.000Z,3.12
2022-08-17T21:41:44.000Z,2.98
2022-08-17T21:43:54.000Z,2.98
2022-08-17T21:46:20.000Z,2.9
2022-08-17T21:48:46.000Z,3.2
2022-08-17T21:51:12.000Z,3.07
2022-08-17T21:53:39.000Z,2.9
2022-08-17T21:56:06.000Z,3
2022-08-17T21:58:33.000Z,3.25
2022-08-17T22:00:58.000Z,2.9
2022-08-17T22:03:24.000Z,2.7
2022-08-17T22:05:51.000Z,2.8
2022-08-17T22:08:17.000Z,2.92
2022-08-17T22:10:43.000Z,2.9
2022-08-17T22:13:09.000Z,2.9
2022-08-17T22:18:00.000Z,3
2022-08-17T22:20:27.000Z,3.37
2022-08-17T22:22:52.000Z,3.42
2022-08-17T22:27:48.000Z,3.15
2022-08-17T22:30:16.000Z,3.15
2022-08-17T22:30:23.000Z,3.12
2022-08-17T22:32:42.000Z,3.5
2022-08-17T22:35:08.000Z,3.6
2022-08-17T22:37:34.000Z,3.7
2022-08-17T22:39:59.000Z,3.5
2022-08-17T22:42:26.000Z,3.53
2022-08-17T22:44:52.000Z,3.53
2022-08-17T22:45:00.000Z,3.75
2022-08-17T22:47:19.000Z,3.8
2022-08-17T22:49:46.000Z,3.63
2022-08-17T22:52:11.000Z,3.63
2022-08-17T22:52:19.000Z,3.8
2022-08-17T22:54:37.000Z,3.8
2022-08-17T22:54:47.000Z,4.37
2022-08-17T22:57:04.000Z,4.45
2022-08-17T22:59:30.000Z,5.33
2022-08-17T23:01:55.000Z,5.13
2022-08-17T23:04:21.000Z,5.33
2022-08-17T23:06:49.000Z,4.83
2022-08-17T23:09:14.000Z,5.33
2022-08-17T23:11:41.000Z,4.95
2022-08-17T23:14:07.000Z,4.95
2022-08-17T23:14:14.000Z,5.75
2022-08-17T23:16:37.000Z,6.33
2022-08-17T23:19:01.000Z,6.28
2022-08-17T23:21:28.000Z,6
2022-08-17T23:23:54.000Z,6
2022-08-17T23:26:21.000Z,6
2022-08-17T23:26:30.000Z,6.7
2022-08-17T23:26:38.000Z,6.3
2022-08-17T23:28:47.000Z,6.77
2022-08-17T23:31:12.000Z,7.67
2022-08-17T23:33:39.000Z,7.17
2022-08-17T23:36:04.000Z,7.2
2022-08-17T23:38:30.000Z,6.5
2022-08-17T23:40:56.000Z,6.7
2022-08-17T23:43:22.000Z,6.43
2022-08-17T23:45:48.000Z,6.43
2022-08-17T23:45:56.000Z,5.87
2022-08-17T23:48:14.000Z,6.17
2022-08-17T23:50:42.000Z,6.17
2022-08-17T23:50:49.000Z,6
2022-08-17T23:53:08.000Z,6.75
2022-08-17T23:55:34.000Z,7
2022-08-17T23:58:02.000Z,7.6
